Time;durP1;ratioP1;P1;durP2;ratioP2;P2;SDS_P1;SDS_P2;PMS_P1;PMS_P2;Temp;Humidity;BMP_temperature;BMP_pressure;BME280_temperature;BME280_humidity;BME280_pressure;Samples;Min_cycle;Max_cycle;Signal;HPM_P1;HPM_P2
2021/05/27 00:00:36;;;;;;;19.23;17.23;;;16.70;95.70;;;;;;5076789;28;20058;-80
2021/05/27 00:03:03;;;;;;;20.17;17.35;;;16.70;96.10;;;;;;5101155;28;20091;-82
2021/05/27 00:05:30;;;;;;;22.23;17.48;;;16.70;96.10;;;;;;5101741;28;20020;-83
2021/05/27 00:07:56;;;;;;;18.75;16.77;;;16.70;96.30;;;;;;5095347;28;20020;-81
2021/05/27 00:10:28;;;;;;;18.02;16.02;;;16.60;96.30;;;;;;5095648;28;20031;-82
2021/05/27 00:12:54;;;;;;;17.58;15.63;;;16.60;96.30;;;;;;5094910;28;20477;-81
2021/05/27 00:15:23;;;;;;;20.52;16.52;;;16.70;96.20;;;;;;5076599;28;20074;-82
2021/05/27 00:17:49;;;;;;;17.95;16.13;;;16.60;96.00;;;;;;5076982;28;20020;-84
2021/05/27 00:20:15;;;;;;;17.77;14.50;;;16.70;96.00;;;;;;5095142;28;20063;-82
2021/05/27 00:22:42;;;;;;;20.15;16.63;;;16.70;95.90;;;;;;5095310;28;20074;-82
2021/05/27 00:25:09;;;;;;;20.88;17.30;;;16.60;96.00;;;;;;5095329;28;20016;-81
2021/05/27 00:27:35;;;;;;;20.92;18.02;;;16.60;96.30;;;;;;5077107;28;20157;-82
2021/05/27 18:58:22;;;;;;;20.05;15.18;;;19.60;83.90;;;;;;5019696;28;20076;-82
2021/05/27 19:00:48;;;;;;;18.55;14.90;;;19.60;84.70;;;;;;5029431;28;20110;-82
2021/05/27 19:03:15;;;;;;;20.60;15.45;;;19.60;85.00;;;;;;5018407;28;20397;-83
2021/05/27 19:05:44;;;;;;;23.35;16.50;;;19.60;85.10;;;;;;5028860;28;20068;-83
2021/05/27 19:08:11;;;;;;;17.95;15.27;;;19.60;85.10;;;;;;5030772;28;20394;-83
2021/05/27 19:10:37;;;;;;;18.00;15.02;;;19.70;85.10;;;;;;5025090;28;20029;-81
2021/05/27 19:13:03;;;;;;;23.00;16.48;;;19.70;85.20;;;;;;5032241;28;20041;-79
2021/05/27 19:15:30;;;;;;;18.88;16.98;;;19.70;85.60;;;;;;5032090;28;20021;-81
2021/05/27 19:17:57;;;;;;;20.00;16.50;;;19.60;86.10;;;;;;5031874;28;20022;-80
2021/05/27 19:20:23;;;;;;;24.93;18.03;;;19.60;86.30;;;;;;5035340;28;20384;-82
2021/05/27 19:22:49;;;;;;;26.85;18.33;;;19.60;86.50;;;;;;5035917;28;20025;-81
2021/05/27 19:25:17;;;;;;;26.52;17.88;;;19.60;86.60;;;;;;5035847;28;20028;-82
2021/05/27 19:27:44;;;;;;;20.35;18.17;;;19.60;86.60;;;;;;5036588;28;20415;-82
2021/05/27 19:30:10;;;;;;;19.52;17.55;;;19.70;86.70;;;;;;5013099;28;20061;-84
2021/05/27 19:32:40;;;;;;;21.65;17.50;;;19.70;86.70;;;;;;5036478;28;20105;-82
2021/05/27 19:35:08;;;;;;;20.90;18.25;;;19.70;86.80;;;;;;5018338;28;20029;-83
2021/05/27 19:37:34;;;;;;;19.73;17.55;;;19.70;87.10;;;;;;5018142;28;20156;-82
2021/05/27 19:40:01;;;;;;;23.90;19.98;;;19.70;87.00;;;;;;5036327;28;20060;-80
2021/05/27 19:42:27;;;;;;;24.47;19.57;;;19.70;87.20;;;;;;5036091;28;20017;-82
2021/05/27 19:44:53;;;;;;;24.17;19.30;;;19.70;87.10;;;;;;5019194;28;20029;-81
2021/05/27 19:47:20;;;;;;;29.92;19.40;;;19.70;87.20;;;;;;5019344;28;20462;-82
2021/05/27 19:49:47;;;;;;;26.95;19.15;;;19.60;87.40;;;;;;5037513;28;20033;-82
2021/05/27 19:52:13;;;;;;;25.87;20.00;;;19.60;87.70;;;;;;5028230;28;20025;-82
2021/05/27 19:54:39;;;;;;;22.60;18.63;;;19.60;87.90;;;;;;5049728;28;20032;-82
2021/05/27 19:57:05;;;;;;;23.73;19.90;;;19.60;88.10;;;;;;5030045;28;20025;-83
2021/05/27 19:59:31;;;;;;;27.45;22.00;;;19.60;88.60;;;;;;5037435;28;20052;-80
2021/05/27 20:01:57;;;;;;;26.10;21.02;;;19.60;88.60;;;;;;5037650;28;20034;-83
2021/05/27 20:04:24;;;;;;;27.15;20.42;;;19.60;89.40;;;;;;5031706;28;20021;-83
2021/05/27 20:06:53;;;;;;;24.08;20.50;;;19.50;89.50;;;;;;5036375;28;20026;-82
2021/05/27 20:09:19;;;;;;;28.60;21.48;;;19.50;89.90;;;;;;5036040;28;20085;-86
2021/05/27 20:11:46;;;;;;;22.40;20.13;;;19.50;90.00;;;;;;5027817;28;20053;-85
2021/05/27 20:14:12;;;;;;;22.00;18.80;;;19.50;89.00;;;;;;5035836;28;20104;-84
2021/05/27 20:16:39;;;;;;;22.98;20.15;;;19.50;89.00;;;;;;5035440;28;20148;-84
2021/05/27 20:19:07;;;;;;;22.13;19.73;;;19.50;89.00;;;;;;5035498;28;20022;-85
2021/05/27 20:21:33;;;;;;;21.67;19.35;;;19.60;89.20;;;;;;5035187;28;20072;-87
2021/05/27 20:23:59;;;;;;;22.85;18.70;;;19.60;89.40;;;;;;5036077;28;20065;-86
2021/05/27 20:26:30;;;;;;;22.83;18.17;;;19.60;88.60;;;;;;5036227;28;20386;-85
2021/05/27 20:28:56;;;;;;;21.20;19.00;;;19.60;88.30;;;;;;5036298;28;20029;-87
2021/05/27 20:31:22;;;;;;;23.27;18.83;;;19.60;88.40;;;;;;5035861;28;20025;-88
2021/05/27 20:33:48;;;;;;;19.70;17.73;;;19.60;88.40;;;;;;5019227;28;20394;-86
2021/05/27 20:36:14;;;;;;;19.48;17.42;;;19.60;88.40;;;;;;5046455;28;20094;-87
2021/05/27 20:38:41;;;;;;;23.23;18.43;;;19.70;88.00;;;;;;5053550;28;20017;-86
2021/05/27 20:41:07;;;;;;;19.27;17.30;;;19.70;88.00;;;;;;5055372;28;20048;-88
2021/05/27 20:43:36;;;;;;;20.70;16.75;;;19.70;87.70;;;;;;5050547;28;20552;-88
2021/05/27 20:46:02;;;;;;;16.50;14.85;;;19.70;88.20;;;;;;5044506;28;20079;-88
2021/05/27 20:48:28;;;;;;;21.90;16.77;;;19.50;88.20;;;;;;5037455;28;20022;-86
2021/05/27 20:50:54;;;;;;;18.67;16.90;;;19.40;89.50;;;;;;5037845;28;20053;-84
2021/05/27 20:53:20;;;;;;;22.23;18.77;;;19.20;90.00;;;;;;5018618;28;20029;-87
2021/05/27 20:55:49;;;;;;;20.17;18.13;;;19.00;91.00;;;;;;5018792;28;20053;-89
2021/05/27 20:58:15;;;;;;;19.52;17.60;;;18.80;91.60;;;;;;5019338;28;20029;-89
2021/05/27 21:00:41;;;;;;;20.98;18.95;;;18.60;92.00;;;;;;5036235;28;20501;-86
2021/05/27 21:03:10;;;;;;;21.33;19.20;;;18.40;92.60;;;;;;5035489;28;20041;-86
2021/05/27 21:05:36;;;;;;;20.92;18.70;;;18.40;93.00;;;;;;5034850;28;20474;-82
2021/05/27 21:08:03;;;;;;;22.10;19.65;;;18.30;93.10;;;;;;5034288;28;20072;-83
2021/05/27 21:10:29;;;;;;;24.92;22.10;;;18.20;93.60;;;;;;5034733;28;20020;-84
2021/05/27 21:12:55;;;;;;;21.35;18.83;;;18.10;93.80;;;;;;5034986;28;20116;-86
2021/05/27 21:15:21;;;;;;;19.17;17.25;;;17.90;94.00;;;;;;5036700;28;20384;-87
2021/05/27 21:17:47;;;;;;;20.90;18.88;;;17.80;94.00;;;;;;5035729;28;20025;-87
2021/05/27 21:20:13;;;;;;;21.05;18.85;;;17.80;94.30;;;;;;5036207;28;20025;-88
2021/05/27 21:22:40;;;;;;;23.17;20.75;;;17.80;94.70;;;;;;5037024;28;20033;-85
2021/05/27 21:25:07;;;;;;;24.65;22.40;;;17.90;95.00;;;;;;5026437;28;20049;-88
2021/05/27 21:27:33;;;;;;;;;;;17.90;95.20;;;;;;5047783;28;20025;-87
2021/05/27 21:30:04;;;;;;;26.23;20.92;;;17.90;94.50;;;;;;5035877;28;19905;-88
2021/05/27 21:32:29;;;;;;;27.77;23.52;;;17.70;95.20;;;;;;5025255;28;20371;-88
2021/05/27 21:34:55;;;;;;;26.88;24.35;;;17.70;95.60;;;;;;5037250;28;20045;-88
2021/05/27 21:37:21;;;;;;;27.55;24.85;;;17.70;95.90;;;;;;5020107;28;20040;-88
2021/05/27 21:39:47;;;;;;;30.97;27.87;;;17.70;96.10;;;;;;5039622;28;20083;-88
2021/05/27 21:42:13;;;;;;;28.73;24.33;;;17.60;96.30;;;;;;5037319;28;20044;-87
2021/05/27 21:44:39;;;;;;;31.08;27.95;;;17.60;96.30;;;;;;5046431;28;20032;-90
2021/05/27 21:47:05;;;;;;;34.47;27.90;;;17.60;96.50;;;;;;5037167;28;20079;-84
2021/05/27 21:49:31;;;;;;;32.95;29.45;;;17.60;96.90;;;;;;5035242;28;20025;-84
2021/05/27 21:51:57;;;;;;;34.10;30.63;;;17.70;97.10;;;;;;5036509;28;20025;-83
2021/05/27 21:54:23;;;;;;;33.05;29.48;;;17.60;97.20;;;;;;5036229;28;20017;-86
2021/05/27 21:56:50;;;;;;;34.70;30.53;;;17.60;97.30;;;;;;5037458;28;20032;-85
2021/05/27 21:59:16;;;;;;;33.63;30.38;;;17.60;97.40;;;;;;5034176;28;20052;-86
2021/05/27 22:01:42;;;;;;;37.33;31.07;;;17.60;97.50;;;;;;5034931;28;20152;-82
2021/05/27 22:04:09;;;;;;;35.67;30.92;;;17.50;97.70;;;;;;5035480;28;20501;-88
2021/05/27 22:06:34;;;;;;;39.05;33.80;;;17.50;97.90;;;;;;5023607;28;20381;-87
2021/05/27 22:09:00;;;;;;;40.00;31.58;;;17.50;98.10;;;;;;5041061;28;20201;-86
2021/05/27 22:11:26;;;;;;;30.70;27.55;;;17.50;98.10;;;;;;5035938;28;20014;-85
2021/05/27 22:13:53;;;;;;;27.55;24.50;;;17.50;98.10;;;;;;5038117;28;20360;-86
2021/05/27 22:16:19;;;;;;;32.77;29.37;;;17.50;97.80;;;;;;5035006;28;20025;-86
2021/05/27 22:18:56;;;;;;;39.85;29.92;;;17.40;97.60;;;;;;5034067;28;20324;-86
2021/05/27 22:21:22;;;;;;;33.75;28.38;;;17.40;97.70;;;;;;5034567;28;20033;-86
2021/05/27 22:23:48;;;;;;;27.67;23.73;;;17.40;97.80;;;;;;5041402;28;20032;-92
2021/05/27 22:26:14;;;;;;;23.40;20.90;;;17.30;97.40;;;;;;5041379;28;20029;-94
2021/05/27 22:28:40;;;;;;;23.02;20.55;;;17.40;96.70;;;;;;5040312;28;20026;-91
2021/05/27 22:31:06;;;;;;;21.35;19.17;;;17.40;96.20;;;;;;5037530;28;20486;-91
2021/05/27 22:33:35;;;;;;;23.27;21.02;;;17.40;95.70;;;;;;5049731;28;20013;-93
2021/05/27 22:36:01;;;;;;;23.40;21.05;;;17.50;95.40;;;;;;5044115;28;20046;-91
2021/05/27 22:38:27;;;;;;;29.23;26.42;;;17.60;95.30;;;;;;5056858;28;20021;-93
2021/05/27 22:40:53;;;;;;;35.88;28.00;;;17.70;95.70;;;;;;5043704;28;20482;-93
2021/05/27 22:43:20;;;;;;;30.37;27.37;;;17.80;96.10;;;;;;5044224;28;20037;-93
2021/05/27 22:45:46;;;;;;;27.48;24.60;;;17.90;96.10;;;;;;5046274;28;20173;-92
2021/05/27 22:48:11;;;;;;;28.08;24.25;;;17.90;96.10;;;;;;5043210;28;20021;-92
2021/05/27 22:50:41;;;;;;;27.95;24.95;;;17.90;96.10;;;;;;5034461;28;20018;-93
2021/05/27 22:53:07;;;;;;;29.38;26.17;;;18.00;96.00;;;;;;5057706;28;20038;-92
2021/05/27 22:55:33;;;;;;;32.03;28.27;;;18.00;96.00;;;;;;5057207;28;20024;-92
2021/05/27 22:57:59;;;;;;;30.92;28.00;;;17.90;96.10;;;;;;5050833;28;20025;-92
2021/05/27 23:00:25;;;;;;;30.20;27.10;;;17.90;96.50;;;;;;5044979;28;20050;-92
2021/05/27 23:02:51;;;;;;;33.47;29.70;;;17.80;96.40;;;;;;5046705;28;20022;-93
2021/05/27 23:05:18;;;;;;;32.38;28.00;;;17.80;96.70;;;;;;5037294;28;20046;-93
2021/05/27 23:07:45;;;;;;;27.55;24.85;;;17.70;96.90;;;;;;5020369;28;20112;-86
2021/05/27 23:10:11;;;;;;;31.92;28.77;;;17.80;96.90;;;;;;5037664;28;20539;-86
2021/05/27 23:12:38;;;;;;;27.27;24.48;;;17.80;96.90;;;;;;5037051;28;20037;-88
2021/05/27 23:15:05;;;;;;;28.73;25.92;;;17.80;96.50;;;;;;5034487;28;20068;-87
2021/05/27 23:17:31;;;;;;;29.85;26.98;;;17.80;96.40;;;;;;5034515;28;20025;-87
2021/05/27 23:19:57;;;;;;;34.28;28.17;;;17.80;96.50;;;;;;5017294;28;20541;-86
2021/05/27 23:22:22;;;;;;;32.22;28.98;;;17.80;96.60;;;;;;5042143;28;20117;-87
2021/05/27 23:24:48;;;;;;;35.78;31.98;;;17.70;96.70;;;;;;5044279;28;20041;-88
2021/05/27 23:27:14;;;;;;;31.65;28.48;;;17.60;96.80;;;;;;5046350;28;20047;-87
2021/05/27 23:29:40;;;;;;;34.35;27.27;;;17.60;97.00;;;;;;5037028;28;20025;-86
2021/05/27 23:32:07;;;;;;;34.22;29.45;;;17.50;96.90;;;;;;5034538;28;20033;-88
2021/05/27 23:34:33;;;;;;;37.75;28.63;;;17.50;97.00;;;;;;5042607;28;20026;-91
2021/05/27 23:36:59;;;;;;;32.35;28.25;;;17.50;97.10;;;;;;5033478;28;20021;-92
2021/05/27 23:39:25;;;;;;;31.38;27.85;;;17.50;97.20;;;;;;5051769;28;20030;-92
2021/05/27 23:41:50;;;;;;;34.58;31.08;;;17.50;97.10;;;;;;5043166;28;20037;-90
2021/05/27 23:44:16;;;;;;;37.35;31.33;;;17.50;97.20;;;;;;5028399;28;20009;-91
2021/05/27 23:46:42;;;;;;;39.42;31.15;;;17.40;97.30;;;;;;5047290;28;20021;-91
2021/05/27 23:49:08;;;;;;;36.15;29.30;;;17.40;97.50;;;;;;5039477;28;20009;-92
2021/05/27 23:51:34;;;;;;;35.30;30.88;;;17.30;97.20;;;;;;5052757;28;20030;-92
2021/05/27 23:54:00;;;;;;;41.72;30.80;;;17.30;97.10;;;;;;5049702;28;20014;-90
2021/05/27 23:56:26;;;;;;;33.90;30.48;;;17.30;97.00;;;;;;5035780;28;20032;-90
2021/05/27 23:58:52;;;;;;;35.78;32.15;;;17.30;97.10;;;;;;5019590;28;20132;-91
